sensor_id;sensor_type;location;lat;lon;timestamp;pressure;altitude;pressure_sealevel;temperature;humidity
58471;BME280;44258;51.288;12.068;2023-02-10T00:00:56;102274.44;;;-0.80;55.71
58471;BME280;44258;51.288;12.068;2023-02-10T00:03:22;102280.59;;;-0.79;55.51
58471;BME280;44258;51.288;12.068;2023-02-10T00:05:49;102284.16;;;-0.79;55.48
58471;BME280;44258;51.288;12.068;2023-02-10T00:08:16;102282.16;;;-0.87;55.28
58471;BME280;44258;51.288;12.068;2023-02-10T00:10:42;102285.72;;;-0.87;55.36
58471;BME280;44258;51.288;12.068;2023-02-10T00:13:08;102290.34;;;-0.77;55.60
58471;BME280;44258;51.288;12.068;2023-02-10T00:15:38;102277.16;;;-0.75;55.27
58471;BME280;44258;51.288;12.068;2023-02-10T00:18:04;102289.47;;;-0.76;55.40
58471;BME280;44258;51.288;12.068;2023-02-10T00:20:31;102275.44;;;-0.73;55.38
58471;BME280;44258;51.288;12.068;2023-02-10T00:22:57;102284.44;;;-0.65;55.35
58471;BME280;44258;51.288;12.068;2023-02-10T00:25:24;102281.91;;;-0.60;55.25
58471;BME280;44258;51.288;12.068;2023-02-10T00:27:50;102279.13;;;-0.65;55.13
58471;BME280;44258;51.288;12.068;2023-02-10T00:30:17;102286.28;;;-0.61;55.35
58471;BME280;44258;51.288;12.068;2023-02-10T00:32:45;102290.75;;;-0.57;55.43
58471;BME280;44258;51.288;12.068;2023-02-10T00:35:12;102296.00;;;-0.60;55.37
58471;BME280;44258;51.288;12.068;2023-02-10T00:37:39;102286.28;;;-0.61;55.77
58471;BME280;44258;51.288;12.068;2023-02-10T00:40:05;102295.22;;;-0.56;55.83
58471;BME280;44258;51.288;12.068;2023-02-10T00:42:35;102303.22;;;-0.51;55.46
58471;BME280;44258;51.288;12.068;2023-02-10T00:45:01;102299.06;;;-0.40;55.16
58471;BME280;44258;51.288;12.068;2023-02-10T00:47:28;102294.25;;;-0.59;55.32
58471;BME280;44258;51.288;12.068;2023-02-10T00:49:56;102301.72;;;-0.40;55.06
58471;BME280;44258;51.288;12.068;2023-02-10T00:52:25;102304.56;;;-0.29;54.93
58471;BME280;44258;51.288;12.068;2023-02-10T00:54:51;102307.16;;;-0.32;54.89
58471;BME280;44258;51.288;12.068;2023-02-10T00:57:18;102308.94;;;-0.31;55.50
58471;BME280;44258;51.288;12.068;2023-02-10T00:59:44;102304.28;;;-0.44;55.17
58471;BME280;44258;51.288;12.068;2023-02-10T01:02:11;102310.69;;;-0.32;55.27
58471;BME280;44258;51.288;12.068;2023-02-10T01:04:38;102308.00;;;-0.33;55.64
58471;BME280;44258;51.288;12.068;2023-02-10T01:07:05;102307.28;;;-0.26;55.10
58471;BME280;44258;51.288;12.068;2023-02-10T01:09:32;102307.09;;;-0.35;55.61
58471;BME280;44258;51.288;12.068;2023-02-10T01:11:58;102309.00;;;-0.28;55.42
58471;BME280;44258;51.288;12.068;2023-02-10T01:14:26;102299.50;;;-0.18;55.13
58471;BME280;44258;51.288;12.068;2023-02-10T01:17:00;102301.38;;;-0.13;55.22
58471;BME280;44258;51.288;12.068;2023-02-10T01:19:29;102304.84;;;-0.15;55.08
58471;BME280;44258;51.288;12.068;2023-02-10T01:21:55;102304.84;;;-0.15;55.39
58471;BME280;44258;51.288;12.068;2023-02-10T01:24:23;102303.16;;;-0.12;55.37
58471;BME280;44258;51.288;12.068;2023-02-10T01:26:50;102303.06;;;-0.16;55.46
58471;BME280;44258;51.288;12.068;2023-02-10T01:29:16;102297.16;;;-0.03;55.19
58471;BME280;44258;51.288;12.068;2023-02-10T01:31:43;102300.84;;;0.05;55.40
58471;BME280;44258;51.288;12.068;2023-02-10T01:38:04;102308.06;;;0.14;55.25
58471;BME280;44258;51.288;12.068;2023-02-10T01:40:36;102309.88;;;0.17;55.31
58471;BME280;44258;51.288;12.068;2023-02-10T01:43:11;102304.63;;;0.20;54.88
58471;BME280;44258;51.288;12.068;2023-02-10T01:45:39;102305.69;;;0.29;55.28
58471;BME280;44258;51.288;12.068;2023-02-10T01:48:07;102305.69;;;0.29;55.43
58471;BME280;44258;51.288;12.068;2023-02-10T01:50:37;102310.88;;;0.23;54.97
58471;BME280;44258;51.288;12.068;2023-02-10T01:53:06;102308.28;;;0.25;55.56
58471;BME280;44258;51.288;12.068;2023-02-10T01:55:36;102308.47;;;0.36;55.28
58471;BME280;44258;51.288;12.068;2023-02-10T01:58:08;102300.41;;;0.29;55.29
58471;BME280;44258;51.288;12.068;2023-02-10T02:00:36;102309.34;;;0.36;54.96
58471;BME280;44258;51.288;12.068;2023-02-10T02:03:04;102317.34;;;0.39;54.89
58471;BME280;44258;51.288;12.068;2023-02-10T02:05:33;102310.22;;;0.37;54.81
58471;BME280;44258;51.288;12.068;2023-02-10T02:08:03;102307.66;;;0.40;54.75
58471;BME280;44258;51.288;12.068;2023-02-10T02:10:42;102307.44;;;0.27;55.02
58471;BME280;44258;51.288;12.068;2023-02-10T02:13:15;102314.81;;;0.45;54.88
58471;BME280;44258;51.288;12.068;2023-02-10T02:15:48;102310.38;;;0.44;55.13
58471;BME280;44258;51.288;12.068;2023-02-10T02:18:22;102311.91;;;0.31;55.42
58471;BME280;44258;51.288;12.068;2023-02-10T02:24:15;102306.44;;;0.22;56.07
58471;BME280;44258;51.288;12.068;2023-02-10T02:26:56;102304.63;;;0.20;55.55
58471;BME280;44258;51.288;12.068;2023-02-10T02:29:45;102306.09;;;0.04;55.91
58471;BME280;44258;51.288;12.068;2023-02-10T02:32:19;102301.81;;;0.10;55.82
58471;BME280;44258;51.288;12.068;2023-02-10T02:34:51;102311.59;;;0.15;55.73
58471;BME280;44258;51.288;12.068;2023-02-10T02:37:22;102309.97;;;0.21;56.07
58471;BME280;44258;51.288;12.068;2023-02-10T02:39:53;102298.56;;;0.25;55.93
58471;BME280;44258;51.288;12.068;2023-02-10T02:42:22;102303.03;;;0.28;55.35
58471;BME280;44258;51.288;12.068;2023-02-10T02:44:53;102308.28;;;0.26;55.63
58471;BME280;44258;51.288;12.068;2023-02-10T02:47:35;102306.47;;;0.24;56.09
58471;BME280;44258;51.288;12.068;2023-02-10T02:50:17;102313.59;;;0.28;55.49
58471;BME280;44258;51.288;12.068;2023-02-10T02:52:57;102314.44;;;0.25;55.41
58471;BME280;44258;51.288;12.068;2023-02-10T02:55:34;102304.59;;;0.17;55.49
58471;BME280;44258;51.288;12.068;2023-02-10T02:58:10;102307.47;;;0.30;55.71
58471;BME280;44258;51.288;12.068;2023-02-10T03:00:42;102307.31;;;0.21;55.56
58471;BME280;44258;51.288;12.068;2023-02-10T03:03:12;102303.78;;;0.21;55.96
58471;BME280;44258;51.288;12.068;2023-02-10T03:05:42;102310.06;;;0.27;55.71
58471;BME280;44258;51.288;12.068;2023-02-10T03:08:08;102306.66;;;0.33;55.68
58471;BME280;44258;51.288;12.068;2023-02-10T03:10:35;102307.47;;;0.29;55.97
58471;BME280;44258;51.288;12.068;2023-02-10T03:13:01;102305.75;;;0.33;56.04
58471;BME280;44258;51.288;12.068;2023-02-10T03:15:28;102311.91;;;0.31;56.17
58471;BME280;44258;51.288;12.068;2023-02-10T03:17:55;102318.00;;;0.27;56.42
58471;BME280;44258;51.288;12.068;2023-02-10T03:20:23;102316.31;;;0.31;56.66
58471;BME280;44258;51.288;12.068;2023-02-10T03:22:50;102322.63;;;0.39;56.44
58471;BME280;44258;51.288;12.068;2023-02-10T03:25:16;102318.38;;;0.47;56.29
58471;BME280;44258;51.288;12.068;2023-02-10T03:27:43;102326.28;;;0.46;56.47
58471;BME280;44258;51.288;12.068;2023-02-10T03:30:10;102323.66;;;0.49;56.20
58471;BME280;44258;51.288;12.068;2023-02-10T03:32:37;102323.13;;;0.18;57.01
58471;BME280;44258;51.288;12.068;2023-02-10T03:35:04;102328.75;;;0.35;56.74
58471;BME280;44258;51.288;12.068;2023-02-10T03:37:33;102336.78;;;0.41;56.90
58471;BME280;44258;51.288;12.068;2023-02-10T03:39:59;102337.78;;;0.48;56.76
58471;BME280;44258;51.288;12.068;2023-02-10T03:42:25;102350.22;;;0.52;57.00
58471;BME280;44258;51.288;12.068;2023-02-10T03:44:52;102348.41;;;0.49;56.61
58471;BME280;44258;51.288;12.068;2023-02-10T03:47:18;102349.47;;;0.61;57.01
58471;BME280;44258;51.288;12.068;2023-02-10T03:49:45;102340.69;;;0.62;56.46
58471;BME280;44258;51.288;12.068;2023-02-10T03:52:11;102353.75;;;0.53;57.14
58471;BME280;44258;51.288;12.068;2023-02-10T03:54:39;102355.50;;;0.52;57.33
58471;BME280;44258;51.288;12.068;2023-02-10T03:57:05;102359.91;;;0.53;57.71
58471;BME280;44258;51.288;12.068;2023-02-10T03:59:32;102366.28;;;0.63;57.30
58471;BME280;44258;51.288;12.068;2023-02-10T04:01:59;102369.91;;;0.69;57.11
58471;BME280;44258;51.288;12.068;2023-02-10T04:04:26;102373.38;;;0.65;57.41
58471;BME280;44258;51.288;12.068;2023-02-10T04:06:52;102364.38;;;0.54;58.26
58471;BME280;44258;51.288;12.068;2023-02-10T04:09:19;102373.34;;;0.62;58.16
58471;BME280;44258;51.288;12.068;2023-02-10T04:11:48;102368.19;;;0.71;58.08
58471;BME280;44258;51.288;12.068;2023-02-10T04:14:14;102378.88;;;0.76;57.73
58471;BME280;44258;51.288;12.068;2023-02-10T04:16:41;102380.75;;;0.82;57.57
58471;BME280;44258;51.288;12.068;2023-02-10T04:19:07;102385.13;;;0.81;58.09
58471;BME280;44258;51.288;12.068;2023-02-10T04:21:34;102382.50;;;0.83;57.61
58471;BME280;44258;51.288;12.068;2023-02-10T04:24:00;102388.72;;;0.85;57.65
58471;BME280;44258;51.288;12.068;2023-02-10T04:26:26;102391.44;;;0.88;57.74
58471;BME280;44258;51.288;12.068;2023-02-10T04:28:55;102391.28;;;0.79;58.27
58471;BME280;44258;51.288;12.068;2023-02-10T04:31:21;102391.34;;;0.83;58.21
58471;BME280;44258;51.288;12.068;2023-02-10T04:33:48;102391.41;;;0.86;57.96
58471;BME280;44258;51.288;12.068;2023-02-10T04:36:14;102387.84;;;0.84;58.21
58471;BME280;44258;51.288;12.068;2023-02-10T04:38:41;102388.56;;;0.76;58.80
58471;BME280;44258;51.288;12.068;2023-02-10T04:41:07;102385.78;;;0.69;58.96
58471;BME280;44258;51.288;12.068;2023-02-10T04:43:34;102391.06;;;0.66;59.37
58471;BME280;44258;51.288;12.068;2023-02-10T04:46:02;102389.53;;;0.81;59.00
58471;BME280;44258;51.288;12.068;2023-02-10T04:48:29;102393.22;;;0.89;58.52
58471;BME280;44258;51.288;12.068;2023-02-10T04:50:56;102384.41;;;0.90;58.66
58471;BME280;44258;51.288;12.068;2023-02-10T04:53:22;102391.59;;;0.97;58.86
58471;BME280;44258;51.288;12.068;2023-02-10T04:55:49;102386.34;;;1.00;58.59
58471;BME280;44258;51.288;12.068;2023-02-10T04:58:15;102386.38;;;1.03;58.54
58471;BME280;44258;51.288;12.068;2023-02-10T05:00:42;102389.94;;;1.05;58.53
58471;BME280;44258;51.288;12.068;2023-02-10T05:03:11;102382.81;;;1.01;58.63
58471;BME280;44258;51.288;12.068;2023-02-10T05:05:37;102398.56;;;0.92;58.74
58471;BME280;44258;51.288;12.068;2023-02-10T05:08:04;102395.84;;;0.89;59.12
58471;BME280;44258;51.288;12.068;2023-02-10T05:10:30;102399.44;;;0.91;59.08
58471;BME280;44258;51.288;12.068;2023-02-10T05:12:57;102402.03;;;0.88;59.20
58471;BME280;44258;51.288;12.068;2023-02-10T05:15:23;102405.69;;;0.95;59.16
58471;BME280;44258;51.288;12.068;2023-02-10T05:17:49;102408.38;;;0.98;58.96
58471;BME280;44258;51.288;12.068;2023-02-10T05:20:17;102404.88;;;0.99;59.25
58471;BME280;44258;51.288;12.068;2023-02-10T05:22:44;102399.72;;;1.09;59.14
58471;BME280;44258;51.288;12.068;2023-02-10T05:25:10;102410.41;;;1.14;58.93
58471;BME280;44258;51.288;12.068;2023-02-10T05:27:37;102408.59;;;1.11;58.94
58471;BME280;44258;51.288;12.068;2023-02-10T05:30:05;102409.31;;;1.01;58.75
58471;BME280;44258;51.288;12.068;2023-02-10T05:32:34;102412.78;;;0.97;59.01
58471;BME280;44258;51.288;12.068;2023-02-10T05:35:01;102428.59;;;0.92;59.41
58471;BME280;44258;51.288;12.068;2023-02-10T05:37:30;102429.56;;;0.98;59.54
58471;BME280;44258;51.288;12.068;2023-02-10T05:39:56;102423.41;;;0.99;59.61
58471;BME280;44258;51.288;12.068;2023-02-10T05:42:23;102435.78;;;0.98;59.31
58471;BME280;44258;51.288;12.068;2023-02-10T05:44:50;102435.78;;;0.98;59.77
58471;BME280;44258;51.288;12.068;2023-02-10T05:47:16;102435.78;;;0.98;59.92
58471;BME280;44258;51.288;12.068;2023-02-10T05:49:46;102435.81;;;1.01;60.00
58471;BME280;44258;51.288;12.068;2023-02-10T05:52:13;102443.88;;;1.09;59.92
58471;BME280;44258;51.288;12.068;2023-02-10T05:54:41;102438.59;;;1.09;59.91
58471;BME280;44258;51.288;12.068;2023-02-10T05:57:07;102435.06;;;1.10;60.22
58471;BME280;44258;51.288;12.068;2023-02-10T05:59:34;102440.47;;;1.16;60.38
58471;BME280;44258;51.288;12.068;2023-02-10T06:02:00;102438.75;;;1.20;60.14
58471;BME280;44258;51.288;12.068;2023-02-10T06:04:27;102439.75;;;1.25;60.01
58471;BME280;44258;51.288;12.068;2023-02-10T06:06:53;102446.91;;;1.32;60.20
58471;BME280;44258;51.288;12.068;2023-02-10T06:09:20;102446.97;;;1.37;60.01
58471;BME280;44258;51.288;12.068;2023-02-10T06:11:49;102443.50;;;1.39;59.89
58471;BME280;44258;51.288;12.068;2023-02-10T06:14:16;102448.81;;;1.39;59.85
58471;BME280;44258;51.288;12.068;2023-02-10T06:16:42;102450.53;;;1.37;60.14
58471;BME280;44258;51.288;12.068;2023-02-10T06:19:12;102458.47;;;1.36;60.05
58471;BME280;44258;51.288;12.068;2023-02-10T06:21:38;102454.94;;;1.37;60.15
58471;BME280;44258;51.288;12.068;2023-02-10T06:24:05;102453.13;;;1.34;60.30
58471;BME280;44258;51.288;12.068;2023-02-10T06:26:31;102447.91;;;1.37;60.40
58471;BME280;44258;51.288;12.068;2023-02-10T06:28:59;102457.56;;;1.35;60.34
58471;BME280;44258;51.288;12.068;2023-02-10T06:31:26;102459.25;;;1.30;60.39
58471;BME280;44258;51.288;12.068;2023-02-10T06:33:52;102452.06;;;1.23;60.91
58471;BME280;44258;51.288;12.068;2023-02-10T06:36:19;102458.28;;;1.25;61.02
58471;BME280;44258;51.288;12.068;2023-02-10T06:38:46;102446.88;;;1.30;60.98
58471;BME280;44258;51.288;12.068;2023-02-10T06:41:13;102451.41;;;1.36;61.11
58471;BME280;44258;51.288;12.068;2023-02-10T06:43:40;102455.72;;;1.29;61.09
58471;BME280;44258;51.288;12.068;2023-02-10T06:46:08;102451.31;;;1.31;61.05
58471;BME280;44258;51.288;12.068;2023-02-10T06:48:35;102461.03;;;1.32;60.89
58471;BME280;44258;51.288;12.068;2023-02-10T06:51:02;102451.28;;;1.30;61.65
58471;BME280;44258;51.288;12.068;2023-02-10T06:53:31;102462.03;;;1.38;61.50
58471;BME280;44258;51.288;12.068;2023-02-10T06:55:58;102459.50;;;1.45;61.18
58471;BME280;44258;51.288;12.068;2023-02-10T06:58:24;102463.97;;;1.48;60.78
58471;BME280;44258;51.288;12.068;2023-02-10T07:00:51;102471.16;;;1.57;60.78
58471;BME280;44258;51.288;12.068;2023-02-10T07:03:18;102471.22;;;1.60;61.07
58471;BME280;44258;51.288;12.068;2023-02-10T07:05:45;102477.47;;;1.65;61.00
58471;BME280;44258;51.288;12.068;2023-02-10T07:08:11;102484.50;;;1.63;61.07
58471;BME280;44258;51.288;12.068;2023-02-10T07:10:38;102489.66;;;1.52;61.22
58471;BME280;44258;51.288;12.068;2023-02-10T07:13:06;102487.56;;;1.32;62.17
58471;BME280;44258;51.288;12.068;2023-02-10T07:15:33;102507.03;;;1.33;61.84
58471;BME280;44258;51.288;12.068;2023-02-10T07:17:59;102510.59;;;1.35;62.38
58471;BME280;44258;51.288;12.068;2023-02-10T07:20:27;102501.75;;;1.36;62.54
58471;BME280;44258;51.288;12.068;2023-02-10T07:22:54;102501.72;;;1.35;62.75
58471;BME280;44258;51.288;12.068;2023-02-10T07:25:21;102505.44;;;1.44;62.76
58471;BME280;44258;51.288;12.068;2023-02-10T07:27:47;102507.25;;;1.47;62.70
58471;BME280;44258;51.288;12.068;2023-02-10T07:30:14;102510.63;;;1.38;63.17
58471;BME280;44258;51.288;12.068;2023-02-10T07:32:40;102509.56;;;1.28;63.58
58471;BME280;44258;51.288;12.068;2023-02-10T07:35:09;102507.91;;;1.34;63.59
58471;BME280;44258;51.288;12.068;2023-02-10T07:37:38;102509.66;;;1.35;63.64
58471;BME280;44258;51.288;12.068;2023-02-10T07:40:05;102505.28;;;1.37;63.48
58471;BME280;44258;51.288;12.068;2023-02-10T07:42:32;102516.09;;;1.47;63.28
58471;BME280;44258;51.288;12.068;2023-02-10T07:44:59;102518.06;;;1.59;63.21
58471;BME280;44258;51.288;12.068;2023-02-10T07:47:26;102521.72;;;1.67;62.67
58471;BME280;44258;51.288;12.068;2023-02-10T07:49:53;102516.31;;;1.63;62.36
58471;BME280;44258;51.288;12.068;2023-02-10T07:52:19;102527.75;;;1.57;62.37
58471;BME280;44258;51.288;12.068;2023-02-10T07:54:47;102520.47;;;1.45;62.70
58471;BME280;44258;51.288;12.068;2023-02-10T07:57:14;102520.63;;;1.55;62.54
58471;BME280;44258;51.288;12.068;2023-02-10T07:59:40;102517.94;;;1.51;62.24
58471;BME280;44258;51.288;12.068;2023-02-10T08:02:08;102527.69;;;1.54;62.14
58471;BME280;44258;51.288;12.068;2023-02-10T08:04:35;102525.00;;;1.52;62.78
58471;BME280;44258;51.288;12.068;2023-02-10T08:07:02;102528.75;;;1.64;62.37
58471;BME280;44258;51.288;12.068;2023-02-10T08:09:28;102528.84;;;1.70;62.00
58471;BME280;44258;51.288;12.068;2023-02-10T08:11:58;102525.50;;;1.83;61.84
58471;BME280;44258;51.288;12.068;2023-02-10T08:14:26;102533.53;;;1.88;61.69
58471;BME280;44258;51.288;12.068;2023-02-10T08:16:52;102525.66;;;1.92;61.46
58471;BME280;44258;51.288;12.068;2023-02-10T08:19:19;102538.09;;;1.97;61.53
58471;BME280;44258;51.288;12.068;2023-02-10T08:21:46;102538.09;;;1.97;61.64
58471;BME280;44258;51.288;12.068;2023-02-10T08:24:13;102542.50;;;1.98;61.61
58471;BME280;44258;51.288;12.068;2023-02-10T08:26:40;102544.31;;;1.99;61.71
58471;BME280;44258;51.288;12.068;2023-02-10T08:29:09;102548.13;;;2.16;61.47
58471;BME280;44258;51.288;12.068;2023-02-10T08:31:35;102538.59;;;2.30;61.25
58471;BME280;44258;51.288;12.068;2023-02-10T08:34:02;102544.88;;;2.39;60.91
58471;BME280;44258;51.288;12.068;2023-02-10T08:36:28;102535.34;;;2.53;60.92
58471;BME280;44258;51.288;12.068;2023-02-10T08:38:56;102529.13;;;2.51;60.70
58471;BME280;44258;51.288;12.068;2023-02-10T08:41:22;102530.09;;;2.59;60.37
58471;BME280;44258;51.288;12.068;2023-02-10T08:43:50;102518.50;;;2.51;60.56
58471;BME280;44258;51.288;12.068;2023-02-10T08:46:18;102531.91;;;2.62;60.39
58471;BME280;44258;51.288;12.068;2023-02-10T08:48:44;102522.88;;;2.49;60.62
58471;BME280;44258;51.288;12.068;2023-02-10T08:51:12;102528.22;;;2.52;60.61
58471;BME280;44258;51.288;12.068;2023-02-10T08:53:40;102526.69;;;2.69;60.34
58471;BME280;44258;51.288;12.068;2023-02-10T08:56:08;102537.47;;;2.85;60.36
58471;BME280;44258;51.288;12.068;2023-02-10T08:58:35;102534.75;;;2.80;59.98
58471;BME280;44258;51.288;12.068;2023-02-10T09:01:08;102531.25;;;2.81;60.47
58471;BME280;44258;51.288;12.068;2023-02-10T09:03:36;102536.56;;;2.81;60.07
58471;BME280;44258;51.288;12.068;2023-02-10T09:06:02;102540.06;;;2.79;60.11
58471;BME280;44258;51.288;12.068;2023-02-10T09:08:29;102550.69;;;2.79;60.14
58471;BME280;44258;51.288;12.068;2023-02-10T09:10:55;102545.34;;;2.76;60.50
58471;BME280;44258;51.288;12.068;2023-02-10T09:13:23;102546.22;;;2.76;60.51
58471;BME280;44258;51.288;12.068;2023-02-10T09:15:49;102542.72;;;2.80;60.64
58471;BME280;44258;51.288;12.068;2023-02-10T09:18:16;102546.09;;;2.65;60.99
58471;BME280;44258;51.288;12.068;2023-02-10T09:20:43;102544.88;;;2.40;62.45
58471;BME280;44258;51.288;12.068;2023-02-10T09:23:10;102546.03;;;2.59;61.71
58471;BME280;44258;51.288;12.068;2023-02-10T09:25:36;102544.25;;;2.60;61.58
58471;BME280;44258;51.288;12.068;2023-02-10T09:28:03;102543.47;;;2.68;61.64
58471;BME280;44258;51.288;12.068;2023-02-10T09:30:29;102553.38;;;2.82;61.10
58471;BME280;44258;51.288;12.068;2023-02-10T09:32:55;102547.22;;;2.84;61.58
58471;BME280;44258;51.288;12.068;2023-02-10T09:35:22;102544.63;;;2.90;61.52
58471;BME280;44258;51.288;12.068;2023-02-10T09:37:50;102539.34;;;2.95;61.08
58471;BME280;44258;51.288;12.068;2023-02-10T09:40:20;102543.84;;;2.98;61.23
58471;BME280;44258;51.288;12.068;2023-02-10T09:43:00;102541.94;;;2.86;61.59
58471;BME280;44258;51.288;12.068;2023-02-10T09:45:33;102547.34;;;2.97;61.33
58471;BME280;44258;51.288;12.068;2023-02-10T09:48:16;102546.44;;;2.95;60.83
58471;BME280;44258;51.288;12.068;2023-02-10T09:50:51;102549.81;;;2.80;61.43
58471;BME280;44258;51.288;12.068;2023-02-10T09:53:25;102550.03;;;3.01;61.06
58471;BME280;44258;51.288;12.068;2023-02-10T09:55:55;102545.78;;;3.17;60.68
58471;BME280;44258;51.288;12.068;2023-02-10T09:58:29;102546.63;;;3.13;60.73
58471;BME280;44258;51.288;12.068;2023-02-10T10:01:01;102544.78;;;3.04;60.81
58471;BME280;44258;51.288;12.068;2023-02-10T10:03:35;102542.13;;;3.04;61.02
58471;BME280;44258;51.288;12.068;2023-02-10T10:06:14;102550.06;;;3.00;61.06
58471;BME280;44258;51.288;12.068;2023-02-10T10:08:50;102548.44;;;3.16;60.87
58471;BME280;44258;51.288;12.068;2023-02-10T10:11:24;102543.84;;;2.98;61.80
58471;BME280;44258;51.288;12.068;2023-02-10T10:13:52;102545.75;;;3.12;61.00
58471;BME280;44258;51.288;12.068;2023-02-10T10:16:29;102550.13;;;3.07;60.98
58471;BME280;44258;51.288;12.068;2023-02-10T10:19:09;102538.63;;;3.11;61.25
58471;BME280;44258;51.288;12.068;2023-02-10T10:21:43;102547.72;;;3.33;60.77
58471;BME280;44258;51.288;12.068;2023-02-10T10:24:31;102547.63;;;3.23;61.42
58471;BME280;44258;51.288;12.068;2023-02-10T10:27:08;102544.19;;;3.35;60.85
58471;BME280;44258;51.288;12.068;2023-02-10T10:29:43;102538.22;;;3.57;60.29
58471;BME280;44258;51.288;12.068;2023-02-10T10:32:16;102549.00;;;3.71;59.95
58471;BME280;44258;51.288;12.068;2023-02-10T10:34:50;102547.16;;;3.64;60.40
58471;BME280;44258;51.288;12.068;2023-02-10T10:37:20;102543.59;;;3.63;60.03
58471;BME280;44258;51.288;12.068;2023-02-10T10:39:50;102538.28;;;3.66;59.99
58471;BME280;44258;51.288;12.068;2023-02-10T10:42:22;102538.41;;;3.77;60.14
58471;BME280;44258;51.288;12.068;2023-02-10T10:44:54;102541.06;;;3.77;60.22
58471;BME280;44258;51.288;12.068;2023-02-10T10:47:33;102540.16;;;3.75;59.96
58471;BME280;44258;51.288;12.068;2023-02-10T10:50:02;102533.06;;;3.77;59.79
58471;BME280;44258;51.288;12.068;2023-02-10T10:52:31;102529.44;;;3.67;59.70
58471;BME280;44258;51.288;12.068;2023-02-10T10:55:02;102524.97;;;3.62;60.07
58471;BME280;44258;51.288;12.068;2023-02-10T10:57:33;102533.78;;;3.58;60.53
58471;BME280;44258;51.288;12.068;2023-02-10T11:00:05;102532.13;;;3.69;60.13
58471;BME280;44258;51.288;12.068;2023-02-10T11:02:51;102534.75;;;3.66;60.26
58471;BME280;44258;51.288;12.068;2023-02-10T11:05:17;102533.94;;;3.78;59.78
58471;BME280;44258;51.288;12.068;2023-02-10T11:07:47;102533.94;;;3.73;60.59
58471;BME280;44258;51.288;12.068;2023-02-10T11:10:22;102536.75;;;3.98;60.96
58471;BME280;44258;51.288;12.068;2023-02-10T11:12:49;102526.13;;;3.98;60.58
58471;BME280;44258;51.288;12.068;2023-02-10T11:15:30;102522.66;;;4.14;60.31
58471;BME280;44258;51.288;12.068;2023-02-10T11:17:58;102517.38;;;4.23;60.09
58471;BME280;44258;51.288;12.068;2023-02-10T11:20:27;102521.88;;;4.33;59.73
58471;BME280;44258;51.288;12.068;2023-02-10T11:22:58;102523.56;;;4.11;59.62
58471;BME280;44258;51.288;12.068;2023-02-10T11:25:30;102524.47;;;4.18;60.40
58471;BME280;44258;51.288;12.068;2023-02-10T11:27:58;102522.81;;;4.45;59.53
58471;BME280;44258;51.288;12.068;2023-02-10T11:30:26;102525.47;;;4.42;59.45
58471;BME280;44258;51.288;12.068;2023-02-10T11:32:55;102520.13;;;4.39;59.11
58471;BME280;44258;51.288;12.068;2023-02-10T11:35:22;102523.72;;;4.51;58.77
58471;BME280;44258;51.288;12.068;2023-02-10T11:37:52;102521.94;;;4.43;59.21
58471;BME280;44258;51.288;12.068;2023-02-10T11:40:23;102514.81;;;4.40;59.20
58471;BME280;44258;51.288;12.068;2023-02-10T11:42:52;102525.53;;;4.62;59.26
58471;BME280;44258;51.288;12.068;2023-02-10T11:45:22;102525.56;;;4.68;58.93
58471;BME280;44258;51.288;12.068;2023-02-10T11:48:00;102522.94;;;4.72;58.57
58471;BME280;44258;51.288;12.068;2023-02-10T11:50:30;102518.50;;;4.82;57.70
58471;BME280;44258;51.288;12.068;2023-02-10T11:52:56;102520.25;;;4.74;57.75
58471;BME280;44258;51.288;12.068;2023-02-10T11:55:27;102521.19;;;4.90;58.04
58471;BME280;44258;51.288;12.068;2023-02-10T11:58:10;102519.44;;;4.92;57.55
58471;BME280;44258;51.288;12.068;2023-02-10T12:01:01;102517.56;;;4.65;57.65
58471;BME280;44258;51.288;12.068;2023-02-10T12:03:48;102511.34;;;4.63;57.67
58471;BME280;44258;51.288;12.068;2023-02-10T12:06:24;102506.88;;;4.52;57.64
58471;BME280;44258;51.288;12.068;2023-02-10T12:08:56;102505.97;;;4.50;58.06
58471;BME280;44258;51.288;12.068;2023-02-10T12:11:35;102498.00;;;4.58;57.62
58471;BME280;44258;51.288;12.068;2023-02-10T12:14:20;102498.03;;;4.61;57.49
58471;BME280;44258;51.288;12.068;2023-02-10T12:17:00;102491.81;;;4.68;57.56
58471;BME280;44258;51.288;12.068;2023-02-10T12:19:35;102493.63;;;4.76;57.51
58471;BME280;44258;51.288;12.068;2023-02-10T12:22:10;102488.31;;;4.77;57.30
58471;BME280;44258;51.288;12.068;2023-02-10T12:24:53;102498.97;;;4.72;57.45
58471;BME280;44258;51.288;12.068;2023-02-10T12:27:30;102486.44;;;4.58;58.15
58471;BME280;44258;51.288;12.068;2023-02-10T12:30:05;102489.22;;;4.81;57.59
58471;BME280;44258;51.288;12.068;2023-02-10T12:32:44;102474.91;;;4.66;58.11
58471;BME280;44258;51.288;12.068;2023-02-10T12:35:24;102471.38;;;4.61;58.17
58471;BME280;44258;51.288;12.068;2023-02-10T12:38:01;102465.19;;;4.67;57.76
58471;BME280;44258;51.288;12.068;2023-02-10T12:40:51;102463.41;;;4.73;58.18
58471;BME280;44258;51.288;12.068;2023-02-10T12:43:30;102467.88;;;4.90;57.95
58471;BME280;44258;51.288;12.068;2023-02-10T12:46:12;102469.69;;;4.91;57.73
58471;BME280;44258;51.288;12.068;2023-02-10T12:48:56;102474.09;;;4.81;57.31
58471;BME280;44258;51.288;12.068;2023-02-10T12:51:35;102476.78;;;4.83;56.98
58471;BME280;44258;51.288;12.068;2023-02-10T12:54:12;102469.63;;;4.69;57.13
58471;BME280;44258;51.288;12.068;2023-02-10T12:56:44;102468.66;;;4.52;57.94
58471;BME280;44258;51.288;12.068;2023-02-10T12:59:15;102473.16;;;4.61;57.82
58471;BME280;44258;51.288;12.068;2023-02-10T13:01:48;102468.72;;;4.63;57.74
58471;BME280;44258;51.288;12.068;2023-02-10T13:04:21;102465.16;;;4.68;57.58
58471;BME280;44258;51.288;12.068;2023-02-10T13:06:52;102467.81;;;4.64;57.58